Time;durP1;ratioP1;P1;durP2;ratioP2;P2;SDS_P1;SDS_P2;PMS_P1;PMS_P2;Temp;Humidity;BMP_temperature;BMP_pressure;BME280_temperature;BME280_humidity;BME280_pressure;Samples;Min_cycle;Max_cycle;Signal;HPM_P1;HPM_P2
2022/07/11 00:00:00;;;;;;;1.80;1.40;;;;;16.80;96917.00;;;;8384386;28;20232;-65
2022/07/11 00:04:03;;;;;;;1.63;1.50;;;;;16.80;96905.00;;;;8382908;28;20637;-64
2022/07/11 00:08:06;;;;;;;4.55;1.80;;;;;16.80;96903.00;;;;8369430;28;20688;-64
2022/07/11 00:12:12;;;;;;;2.17;1.33;;;;;16.80;96899.00;;;;8375984;28;20295;-64
2022/07/11 00:16:15;;;;;;;5.07;2.28;;;;;16.70;96909.00;;;;8382050;28;20220;-64
2022/07/11 00:20:19;;;;;;;2.15;1.60;;;;;16.60;96897.00;;;;8381794;28;20223;-64
2022/07/11 00:24:24;;;;;;;4.93;1.58;;;;;16.50;96902.00;;;;8374640;28;20223;-64
2022/07/11 00:28:29;;;;;;;2.30;1.60;;;;;16.50;96895.00;;;;8375080;28;20308;-64
2022/07/11 00:32:33;;;;;;;3.95;1.60;;;;;16.40;96895.00;;;;8374667;28;20243;-64
2022/07/11 00:36:36;;;;;;;6.45;1.80;;;;;16.50;96890.00;;;;8377437;28;20230;-64
2022/07/11 00:40:39;;;;;;;2.33;1.55;;;;;16.50;96884.00;;;;8377101;28;20220;-63
2022/07/11 00:44:44;;;;;;;1.75;1.52;;;;;16.40;96886.00;;;;8373023;28;20251;-64
2022/07/11 00:48:47;;;;;;;7.95;1.95;;;;;16.40;96880.00;;;;8370870;28;20217;-64
2022/07/11 00:52:51;;;;;;;1.75;1.50;;;;;16.40;96877.00;;;;8371933;28;20228;-64
2022/07/11 00:56:55;;;;;;;2.80;1.75;;;;;16.30;96880.00;;;;8374254;28;20224;-64
2022/07/11 01:01:00;;;;;;;1.95;1.85;;;;;16.30;96881.00;;;;8369142;28;20232;-64
2022/07/11 01:05:03;;;;;;;3.97;1.60;;;;;16.20;96885.00;;;;8367774;28;20760;-63
2022/07/11 01:09:06;;;;;;;2.38;1.63;;;;;16.20;96878.00;;;;8364333;28;20223;-64
2022/07/11 01:13:10;;;;;;;3.88;2.00;;;;;16.20;96875.00;;;;8370148;28;20251;-64
2022/07/11 01:17:18;;;;;;;3.00;1.48;;;;;16.20;96872.00;;;;8361084;28;20246;-64
2022/07/11 01:21:25;;;;;;;1.67;1.58;;;;;16.20;96871.00;;;;8371278;28;20226;-64
2022/07/11 01:25:30;;;;;;;1.80;1.35;;;;;16.30;96876.00;;;;8378218;28;20240;-64
2022/07/11 01:29:34;;;;;;;3.72;1.60;;;;;16.30;96871.00;;;;8382463;28;20846;-64
2022/07/11 01:33:37;;;;;;;2.80;1.83;;;;;16.20;96871.00;;;;8373257;28;20230;-64
2022/07/11 01:37:41;;;;;;;2.60;1.58;;;;;16.10;96866.00;;;;8373045;28;20621;-64
2022/07/11 01:41:45;;;;;;;3.75;1.48;;;;;16.20;96869.00;;;;8372562;28;20270;-64
2022/07/11 01:45:51;;;;;;;2.92;1.70;;;;;16.20;96865.00;;;;8373769;28;20227;-65
2022/07/11 01:49:55;;;;;;;2.20;1.50;;;;;16.20;96863.00;;;;8356746;28;20249;-64
2022/07/11 01:53:58;;;;;;;2.80;1.88;;;;;16.30;96860.00;;;;8355109;28;20410;-64
2022/07/11 01:58:03;;;;;;;1.60;1.50;;;;;16.30;96860.00;;;;8367298;28;20242;-64
2022/07/11 02:02:06;;;;;;;1.95;1.58;;;;;16.40;96860.00;;;;8366694;28;20231;-64
2022/07/11 02:06:09;;;;;;;5.28;1.98;;;;;16.40;96860.00;;;;8364655;28;20621;-65
2022/07/11 02:10:13;;;;;;;3.58;1.58;;;;;16.40;96859.00;;;;8360093;28;20227;-64
2022/07/11 02:14:17;;;;;;;2.85;1.50;;;;;16.40;96851.00;;;;8376645;28;20298;-64
2022/07/11 02:18:21;;;;;;;3.08;1.65;;;;;16.30;96847.00;;;;8376937;28;20226;-64
2022/07/11 02:22:24;;;;;;;2.10;1.70;;;;;16.40;96847.00;;;;8366955;28;20220;-64
2022/07/11 02:26:27;;;;;;;2.92;1.63;;;;;16.40;96846.00;;;;8375054;28;20237;-64
2022/07/11 02:30:32;;;;;;;2.05;1.77;;;;;16.40;96845.00;;;;8370947;28;22595;-64
2022/07/11 02:34:35;;;;;;;3.60;1.60;;;;;16.40;96844.00;;;;8379402;28;20236;-64
2022/07/11 02:38:38;;;;;;;1.63;1.50;;;;;16.40;96841.00;;;;8370757;28;20228;-64
2022/07/11 02:42:41;;;;;;;2.25;1.55;;;;;16.40;96841.00;;;;8373327;28;20226;-64
2022/07/11 02:46:46;;;;;;;2.00;1.30;;;;;16.50;96837.00;;;;8368940;28;20246;-65
2022/07/11 02:50:49;;;;;;;2.13;1.52;;;;;16.40;96848.00;;;;8360576;28;20221;-64
2022/07/11 02:54:52;;;;;;;1.83;1.50;;;;;16.40;96845.00;;;;8368596;28;20229;-64
2022/07/11 02:58:55;;;;;;;3.03;1.40;;;;;16.30;96846.00;;;;8370296;28;20235;-64
2022/07/11 03:03:01;;;;;;;2.25;1.60;;;;;16.20;96843.00;;;;8390163;22;20917;-65
2022/07/11 03:07:07;;;;;;;1.77;1.67;;;;;16.20;96845.00;;;;8330790;28;20674;-66
2022/07/11 03:11:11;;;;;;;2.75;1.52;;;;;16.10;96840.00;;;;8327325;28;20988;-65
2022/07/11 03:15:14;;;;;;;4.80;1.80;;;;;16.10;96846.00;;;;8319671;28;20217;-65
2022/07/11 03:19:18;;;;;;;5.28;1.92;;;;;16.10;96841.00;;;;8341216;28;20241;-65
2022/07/11 03:23:21;;;;;;;3.95;1.50;;;;;16.10;96847.00;;;;8336946;28;20216;-65
2022/07/11 03:27:24;;;;;;;2.13;1.80;;;;;16.10;96845.00;;;;8332691;28;20237;-66
2022/07/11 03:31:29;;;;;;;3.25;1.85;;;;;16.20;96852.00;;;;8338286;28;20244;-65
2022/07/11 03:35:43;;;;;;;2.58;1.77;;;;;16.30;96851.00;;;;8332885;28;20581;-65
2022/07/11 03:39:46;;;;;;;2.88;1.70;;;;;16.20;96854.00;;;;8333635;28;20942;-65
2022/07/11 03:43:50;;;;;;;2.13;1.60;;;;;16.30;96856.00;;;;8338930;28;20227;-65
2022/07/11 03:47:53;;;;;;;5.13;1.77;;;;;16.30;96851.00;;;;8324436;28;20213;-65
2022/07/11 03:51:57;;;;;;;3.78;1.50;;;;;16.40;96855.00;;;;8340507;28;20224;-65
2022/07/11 03:56:00;;;;;;;4.68;1.60;;;;;16.30;96852.00;;;;8344639;28;20503;-63
2022/07/11 04:00:07;;;;;;;5.50;1.60;;;;;16.40;96855.00;;;;8343461;28;20332;-65
2022/07/11 04:04:11;;;;;;;4.72;1.75;;;;;16.40;96858.00;;;;8330793;28;20228;-66
2022/07/11 04:08:21;;;;;;;7.50;1.80;;;;;16.40;96863.00;;;;8340986;28;20304;-64
2022/07/11 04:12:24;;;;;;;6.10;1.92;;;;;16.50;96863.00;;;;8341095;28;20223;-64
2022/07/11 04:16:27;;;;;;;3.50;1.70;;;;;16.50;96865.00;;;;8346969;28;20247;-63
2022/07/11 04:20:31;;;;;;;2.85;1.70;;;;;16.60;96867.00;;;;8328894;28;20278;-64
2022/07/11 04:24:36;;;;;;;3.95;1.92;;;;;16.70;96869.00;;;;8329331;28;20331;-63
2022/07/11 04:28:39;;;;;;;3.42;1.70;;;;;16.70;96873.00;;;;8335439;28;20217;-64
2022/07/11 04:32:43;;;;;;;1.70;1.60;;;;;16.80;96870.00;;;;8341036;28;20682;-64
2022/07/11 04:36:46;;;;;;;2.85;1.80;;;;;16.80;96874.00;;;;8328341;28;20233;-63
2022/07/11 04:40:51;;;;;;;4.15;1.83;;;;;16.40;96872.00;;;;8342670;28;20806;-64
2022/07/11 04:44:55;;;;;;;2.15;2.00;;;;;16.00;96884.00;;;;8332268;28;20730;-64
2022/07/11 04:48:58;;;;;;;2.75;2.03;;;;;15.80;96879.00;;;;8321606;28;20304;-63
2022/07/11 04:53:01;;;;;;;5.30;2.38;;;;;15.60;96882.00;;;;8336514;28;20229;-64
2022/07/11 04:57:08;;;;;;;5.00;2.58;;;;;15.40;96873.00;;;;8325378;28;20307;-63
2022/07/11 05:01:11;;;;;;;5.68;2.33;;;;;15.40;96884.00;;;;8330064;28;20257;-64
2022/07/11 05:05:15;;;;;;;4.53;2.17;;;;;15.30;96895.00;;;;8330922;28;20697;-63
2022/07/11 05:09:18;;;;;;;4.32;2.40;;;;;15.40;96896.00;;;;8324900;28;20635;-63
2022/07/11 05:13:23;;;;;;;5.35;2.55;;;;;15.30;96899.00;;;;8334498;28;20238;-64
2022/07/11 05:17:26;;;;;;;3.40;2.90;;;;;15.20;96904.00;;;;8323501;28;20637;-64
2022/07/11 05:21:29;;;;;;;7.25;2.83;;;;;15.30;96901.00;;;;8338413;28;20723;-63
2022/07/11 05:25:32;;;;;;;7.40;2.42;;;;;15.40;96898.00;;;;8338637;28;20727;-63
2022/07/11 05:29:37;;;;;;;9.65;3.15;;;;;15.60;96904.00;;;;8333681;28;20229;-64
2022/07/11 05:33:40;;;;;;;3.65;2.38;;;;;15.70;96908.00;;;;8348192;28;20278;-64
2022/07/11 05:37:44;;;;;;;8.77;2.38;;;;;15.80;96910.00;;;;8325649;28;20224;-64
2022/07/11 05:41:51;;;;;;;4.35;2.72;;;;;16.20;96908.00;;;;8327129;28;20217;-65
2022/07/11 05:45:55;;;;;;;2.65;2.28;;;;;16.90;96904.00;;;;8353218;28;20697;-65
2022/07/11 05:49:58;;;;;;;4.03;2.00;;;;;17.50;96908.00;;;;8330583;28;20229;-63
2022/07/11 05:54:02;;;;;;;2.65;1.88;;;;;17.80;96911.00;;;;8324237;28;21062;-63
2022/07/11 05:58:05;;;;;;;7.32;2.28;;;;;17.80;96902.00;;;;8331962;28;20305;-63
2022/07/11 06:02:10;;;;;;;4.70;2.63;;;;;17.90;96902.00;;;;8330450;28;20718;-63
2022/07/11 06:06:14;;;;;;;4.75;2.00;;;;;17.90;96903.00;;;;8337824;28;20323;-64
2022/07/11 06:10:17;;;;;;;3.85;2.63;;;;;17.90;96907.00;;;;8330438;28;20573;-63
2022/07/11 06:14:21;;;;;;;2.80;2.20;;;;;17.90;96907.00;;;;8331458;28;20629;-63
2022/07/11 06:18:26;;;;;;;3.90;2.55;;;;;18.10;96906.00;;;;8341162;28;20244;-63
2022/07/11 06:22:30;;;;;;;6.72;2.35;;;;;18.20;96904.00;;;;8334640;28;20271;-63
2022/07/11 06:26:33;;;;;;;6.22;2.42;;;;;18.40;96902.00;;;;8343623;28;20236;-63
2022/07/11 06:30:37;;;;;;;4.18;1.75;;;;;18.90;96904.00;;;;8335407;28;20241;-64
2022/07/11 06:34:42;;;;;;;6.78;2.25;;;;;19.10;96904.00;;;;8339539;28;20628;-63
2022/07/11 06:38:45;;;;;;;4.22;2.17;;;;;19.50;96893.00;;;;8336099;28;20678;-63
2022/07/11 06:42:48;;;;;;;3.45;2.15;;;;;19.90;96886.00;;;;8324857;28;20570;-63
2022/07/11 06:46:52;;;;;;;2.50;1.80;;;;;20.40;96890.00;;;;8331545;28;20237;-63
2022/07/11 06:50:56;;;;;;;2.42;1.60;;;;;20.60;96903.00;;;;8335870;28;20225;-63
2022/07/11 06:55:08;;;;;;;3.15;2.03;;;;;20.90;96898.00;;;;8328742;28;20233;-63
2022/07/11 06:59:11;;;;;;;2.58;1.70;;;;;21.90;96906.00;;;;8324720;28;20230;-63
2022/07/11 07:03:14;;;;;;;4.18;2.05;;;;;21.90;96906.00;;;;8348228;28;20231;-63
2022/07/11 07:07:23;;;;;;;1.48;1.38;;;;;21.90;96904.00;;;;8331327;28;20228;-63
2022/07/11 07:11:27;;;;;;;5.05;1.92;;;;;22.00;96912.00;;;;8333995;28;20217;-63
2022/07/11 07:15:30;;;;;;;3.08;1.60;;;;;22.10;96914.00;;;;8334686;28;20248;-63
2022/07/11 07:19:33;;;;;;;1.65;1.55;;;;;21.80;96912.00;;;;8342615;28;20232;-62
2022/07/11 07:23:40;;;;;;;1.35;1.35;;;;;21.50;96917.00;;;;8328794;28;20227;-63
2022/07/11 07:27:44;;;;;;;2.97;1.42;;;;;21.10;96915.00;;;;8334229;28;20686;-63
2022/07/11 07:31:47;;;;;;;4.47;1.65;;;;;20.90;96919.00;;;;8334404;28;20274;-64
2022/07/11 07:35:50;;;;;;;3.08;1.52;;;;;21.10;96917.00;;;;8339317;28;20229;-63
2022/07/11 07:39:55;;;;;;;2.95;1.50;;;;;21.50;96918.00;;;;8331730;28;20320;-63
2022/07/11 07:43:58;;;;;;;3.72;1.65;;;;;21.30;96919.00;;;;8338961;28;20225;-63
2022/07/11 07:48:01;;;;;;;1.67;1.40;;;;;21.10;96915.00;;;;8334848;28;20235;-63
2022/07/11 07:52:05;;;;;;;3.35;1.85;;;;;20.20;96928.00;;;;8342337;28;20312;-63
2022/07/11 07:56:09;;;;;;;3.90;2.20;;;;;19.50;96927.00;;;;8334026;28;20938;-63
2022/07/11 08:04:40;;;;;;;2.35;2.15;;;;;20.10;96917.00;;;;8343032;28;20224;-61
2022/07/11 08:08:43;;;;;;;2.35;1.80;;;;;20.50;96915.00;;;;8339900;28;20665;-62
2022/07/11 08:12:48;;;;;;;3.88;1.92;;;;;20.30;96921.00;;;;8343038;28;20239;-62
2022/07/11 08:16:51;;;;;;;4.15;1.92;;;;;19.90;96924.00;;;;8331723;28;20224;-62
2022/07/11 08:20:56;;;;;;;2.85;2.00;;;;;19.60;96929.00;;;;8333966;28;20251;-63
2022/07/11 08:24:59;;;;;;;3.53;1.98;;;;;19.20;96914.00;;;;8341668;28;20251;-62
2022/07/11 08:29:05;;;;;;;3.33;2.20;;;;;19.60;96927.00;;;;8334536;28;20305;-63
2022/07/11 08:33:08;;;;;;;1.98;1.80;;;;;20.20;96922.00;;;;8332969;28;20225;-62
2022/07/11 08:37:11;;;;;;;2.33;1.50;;;;;21.00;96922.00;;;;8328617;28;20319;-61
2022/07/11 08:41:16;;;;;;;1.67;1.58;;;;;20.90;96919.00;;;;8329843;28;20237;-62
2022/07/11 08:45:23;;;;;;;1.95;1.75;;;;;20.60;96914.00;;;;8332909;28;20229;-62
2022/07/11 08:49:28;;;;;;;6.80;1.70;;;;;20.80;96912.00;;;;8338226;28;20220;-62
2022/07/11 08:53:33;;;;;;;2.08;1.70;;;;;21.40;96918.00;;;;8334703;28;20300;-61
2022/07/11 08:57:37;;;;;;;1.55;1.40;;;;;21.50;96913.00;;;;8336044;28;20240;-62
2022/07/11 09:01:46;;;;;;;1.55;1.45;;;;;21.50;96919.00;;;;8338527;28;20733;-62
2022/07/11 09:05:50;;;;;;;1.33;1.20;;;;;21.30;96921.00;;;;8328455;28;20721;-62
2022/07/11 09:09:53;;;;;;;1.50;1.40;;;;;21.30;96920.00;;;;8324850;28;20843;-62
2022/07/11 09:13:56;;;;;;;1.38;1.35;;;;;20.90;96910.00;;;;8332298;28;20232;-63
2022/07/11 09:18:01;;;;;;;2.95;1.20;;;;;20.50;96913.00;;;;8325952;28;20278;-62
2022/07/11 09:26:30;;;;;;;0.95;0.95;;;;;20.60;96910.00;;;;8333954;28;20212;-63
2022/07/11 09:30:37;;;;;;;1.02;1.02;;;;;21.40;96906.00;;;;8327772;28;20304;-63
2022/07/11 09:35:00;;;;;;;1.20;1.10;;;;;22.70;96907.00;;;;8333005;28;20307;-63
2022/07/11 09:39:04;;;;;;;1.00;1.00;;;;;23.60;96910.00;;;;8323345;28;20252;-62
2022/07/11 09:43:07;;;;;;;1.00;1.00;;;;;23.40;96917.00;;;;8326017;28;20229;-63
2022/07/11 09:47:11;;;;;;;0.90;0.90;;;;;22.70;96923.00;;;;8331142;28;20256;-63
2022/07/11 09:51:21;;;;;;;0.90;0.90;;;;;22.10;96919.00;;;;8334010;28;20340;-62
2022/07/11 09:55:26;;;;;;;0.95;0.95;;;;;21.70;96918.00;;;;8330351;28;20225;-63
2022/07/11 09:59:56;;;;;;;0.75;0.75;;;;;21.60;96913.00;;;;8339212;28;20620;-62
2022/07/11 10:04:00;;;;;;;0.80;0.80;;;;;21.60;96926.00;;;;8337731;28;20221;-63
2022/07/11 10:08:06;;;;;;;0.80;0.80;;;;;21.40;96932.00;;;;8334991;28;20243;-63
2022/07/11 10:12:09;;;;;;;0.80;0.80;;;;;21.20;96932.00;;;;8326347;28;20686;-62
2022/07/11 10:16:24;;;;;;;1.77;0.70;;;;;21.20;96937.00;;;;8328286;28;20682;-62
2022/07/11 10:20:33;;;;;;;1.45;0.98;;;;;21.10;96941.00;;;;8326510;28;20229;-63
2022/07/11 10:24:46;;;;;;;0.80;0.70;;;;;21.00;96941.00;;;;8323135;28;20317;-63
2022/07/11 10:28:55;;;;;;;0.70;0.70;;;;;20.90;96941.00;;;;8335127;28;20225;-62
2022/07/11 10:32:59;;;;;;;0.70;0.70;;;;;21.00;96946.00;;;;8342624;28;20725;-63
2022/07/11 10:37:04;;;;;;;0.80;0.80;;;;;21.20;96944.00;;;;8341974;28;20236;-63
2022/07/11 10:41:21;;;;;;;0.85;0.85;;;;;21.50;96945.00;;;;8332214;28;20258;-64
2022/07/11 10:45:25;;;;;;;2.85;1.00;;;;;21.90;96946.00;;;;8336084;28;20331;-63
2022/07/11 10:49:41;;;;;;;0.80;0.80;;;;;21.90;96951.00;;;;8338540;28;20312;-63
2022/07/11 10:53:49;;;;;;;1.92;1.08;;;;;21.70;96948.00;;;;8350100;28;20320;-63
2022/07/11 10:58:03;;;;;;;2.03;0.90;;;;;22.10;96950.00;;;;8350787;28;20251;-62
2022/07/11 11:02:11;;;;;;;0.70;0.70;;;;;22.40;96946.00;;;;8333731;28;20316;-63
2022/07/11 11:06:20;;;;;;;0.90;0.90;;;;;23.20;96950.00;;;;8347196;28;20809;-64
2022/07/11 11:10:51;;;;;;;0.70;0.70;;;;;24.30;96941.00;;;;8341955;28;20494;-62
2022/07/11 11:15:34;;;;;;;0.95;0.80;;;;;25.40;96935.00;;;;8335394;28;20315;-63
2022/07/11 11:19:54;;;;;;;0.75;0.75;;;;;26.40;96933.00;;;;8336416;28;20732;-64
2022/07/11 11:24:09;;;;;;;0.80;0.80;;;;;26.60;96935.00;;;;8329193;28;20304;-63
2022/07/11 11:28:20;;;;;;;2.78;1.00;;;;;26.70;96938.00;;;;8346582;28;20319;-63
2022/07/11 11:32:31;;;;;;;1.40;0.85;;;;;26.50;96933.00;;;;8343376;28;20300;-63
2022/07/11 11:36:34;;;;;;;0.98;0.90;;;;;26.30;96937.00;;;;8334237;28;20228;-63
2022/07/11 11:40:37;;;;;;;0.73;0.73;;;;;25.90;96936.00;;;;8330456;28;20612;-65
2022/07/11 11:44:55;;;;;;;2.08;0.82;;;;;25.20;96937.00;;;;8326469;28;20223;-63
2022/07/11 11:49:01;;;;;;;2.58;0.90;;;;;24.50;96937.00;;;;8327335;28;20304;-63
2022/07/11 11:53:04;;;;;;;2.33;0.90;;;;;24.00;96937.00;;;;8338116;28;20946;-63
2022/07/11 11:57:13;;;;;;;1.00;1.00;;;;;23.70;96937.00;;;;8339823;28;20676;-64
2022/07/11 12:01:21;;;;;;;0.90;0.90;;;;;23.60;96937.00;;;;8334958;28;20312;-64
2022/07/11 12:05:27;;;;;;;1.05;1.05;;;;;23.50;96939.00;;;;8329283;28;20231;-63
2022/07/11 12:09:50;;;;;;;1.05;1.05;;;;;24.00;96924.00;;;;8338370;28;20229;-64
2022/07/11 12:13:57;;;;;;;1.00;1.00;;;;;25.70;96932.00;;;;8343678;28;20220;-64
2022/07/11 12:18:02;;;;;;;0.93;0.93;;;;;27.40;96921.00;;;;8332496;28;20238;-65
2022/07/11 12:22:07;;;;;;;1.75;0.90;;;;;27.80;96917.00;;;;8341559;28;20228;-63
2022/07/11 12:26:12;;;;;;;0.90;0.90;;;;;27.10;96918.00;;;;8345167;28;20224;-65
2022/07/11 12:30:25;;;;;;;0.90;0.90;;;;;26.60;96915.00;;;;8334091;28;20680;-67
2022/07/11 12:34:44;;;;;;;2.80;1.10;;;;;26.50;96915.00;;;;8337641;28;20256;-63
2022/07/11 12:38:51;;;;;;;2.63;1.10;;;;;26.20;96909.00;;;;8349847;28;20651;-63
2022/07/11 12:42:55;;;;;;;0.90;0.90;;;;;26.30;96916.00;;;;8333787;28;20238;-64
2022/07/11 12:47:04;;;;;;;0.90;0.90;;;;;26.80;96907.00;;;;8323500;28;20217;-63
2022/07/11 12:51:21;;;;;;;1.10;1.08;;;;;27.40;96915.00;;;;8344793;28;20219;-62
2022/07/11 12:55:28;;;;;;;1.25;0.70;;;;;27.10;96916.00;;;;8342059;28;20705;-63
2022/07/11 12:59:32;;;;;;;1.17;1.08;;;;;26.90;96910.00;;;;8338468;28;20719;-64
2022/07/11 13:03:36;;;;;;;0.90;0.90;;;;;26.50;96911.00;;;;8322385;28;20243;-63
2022/07/11 13:12:04;;;;;;;16.23;1.20;;;;;26.30;96902.00;;;;8334584;28;20316;-63
2022/07/11 13:16:08;;;;;;;2.85;1.05;;;;;26.50;96902.00;;;;8328309;28;20314;-63
2022/07/11 13:20:14;;;;;;;1.02;1.02;;;;;26.70;96911.00;;;;8340152;28;20229;-63
2022/07/11 13:24:17;;;;;;;1.00;1.00;;;;;27.10;96909.00;;;;8338380;28;20224;-63
2022/07/11 13:28:24;;;;;;;1.10;1.10;;;;;26.60;96900.00;;;;8336037;28;20240;-63
2022/07/11 13:32:31;;;;;;;1.00;1.00;;;;;26.20;96906.00;;;;8332807;28;20698;-63
2022/07/11 13:36:34;;;;;;;1.30;1.10;;;;;26.10;96905.00;;;;8329614;28;20224;-63
2022/07/11 13:40:38;;;;;;;0.95;0.95;;;;;26.70;96900.00;;;;8318326;28;20320;-63
2022/07/11 13:44:42;;;;;;;1.00;1.00;;;;;27.10;96902.00;;;;8337240;28;20371;-64
2022/07/11 13:48:46;;;;;;;2.10;0.90;;;;;27.30;96901.00;;;;8333424;28;20765;-64
2022/07/11 13:52:50;;;;;;;1.08;1.08;;;;;27.20;96900.00;;;;8335875;28;20220;-64
2022/07/11 13:56:53;;;;;;;0.90;0.90;;;;;27.50;96904.00;;;;8328786;28;21045;-64
2022/07/11 14:00:58;;;;;;;0.80;0.80;;;;;27.60;96896.00;;;;8334541;28;20228;-64
2022/07/11 14:05:01;;;;;;;0.90;0.90;;;;;28.50;96897.00;;;;8335856;28;20229;-64
2022/07/11 14:09:05;;;;;;;0.80;0.80;;;;;28.70;96896.00;;;;8329301;28;20228;-63
2022/07/11 14:13:08;;;;;;;1.05;0.95;;;;;28.60;96894.00;;;;8330124;28;20316;-63
2022/07/11 14:17:13;;;;;;;0.95;0.95;;;;;28.60;96896.00;;;;8332963;28;20224;-64
2022/07/11 14:21:16;;;;;;;0.80;0.80;;;;;28.10;96904.00;;;;8325148;28;20279;-64
2022/07/11 14:25:20;;;;;;;0.90;0.90;;;;;27.40;96903.00;;;;8344692;28;20301;-64
2022/07/11 14:29:23;;;;;;;0.70;0.70;;;;;28.00;96895.00;;;;8329798;28;20251;-63
2022/07/11 14:33:28;;;;;;;0.80;0.80;;;;;28.60;96896.00;;;;8338709;28;20746;-64
2022/07/11 14:37:36;;;;;;;0.70;0.70;;;;;29.00;96887.00;;;;8329012;28;20224;-63
2022/07/11 14:41:39;;;;;;;0.82;0.80;;;;;28.20;96891.00;;;;8327638;28;20260;-64
2022/07/11 14:45:42;;;;;;;0.80;0.80;;;;;27.20;96894.00;;;;8332281;28;20216;-63
2022/07/11 14:49:47;;;;;;;0.60;0.60;;;;;28.30;96891.00;;;;8327087;28;20355;-65
2022/07/11 14:53:50;;;;;;;1.65;0.60;;;;;29.40;96878.00;;;;8332561;28;20216;-65
2022/07/11 14:57:53;;;;;;;0.65;0.65;;;;;29.80;96881.00;;;;8328564;28;20592;-66
2022/07/11 15:01:57;;;;;;;2.38;0.90;;;;;30.00;96880.00;;;;8333423;28;20307;-66
2022/07/11 15:06:02;;;;;;;0.50;0.50;;;;;29.90;96876.00;;;;8346853;28;20220;-65
2022/07/11 15:14:27;;;;;;;0.70;0.70;;;;;28.80;96871.00;;;;8327939;28;20684;-63
2022/07/11 15:18:30;;;;;;;0.80;0.73;;;;;29.30;96867.00;;;;8334326;28;20229;-63
2022/07/11 15:22:35;;;;;;;0.60;0.60;;;;;30.10;96857.00;;;;8329276;28;20245;-63
2022/07/11 15:26:38;;;;;;;0.60;0.60;;;;;30.70;96875.00;;;;8337322;28;20216;-64
2022/07/11 15:30:41;;;;;;;0.73;0.73;;;;;30.70;96863.00;;;;8332815;28;20225;-64
2022/07/11 15:34:45;;;;;;;0.80;0.80;;;;;30.90;96874.00;;;;8331309;28;20224;-63
2022/07/11 15:38:51;;;;;;;0.70;0.70;;;;;31.00;96866.00;;;;8338556;28;20634;-64
2022/07/11 15:42:54;;;;;;;0.60;0.60;;;;;31.40;96861.00;;;;8344703;28;20244;-64
2022/07/11 15:47:02;;;;;;;0.52;0.52;;;;;30.70;96869.00;;;;8335051;28;20704;-65
2022/07/11 15:51:07;;;;;;;0.60;0.60;;;;;29.70;96861.00;;;;8334282;28;20227;-64
2022/07/11 15:55:12;;;;;;;0.93;0.68;;;;;28.70;96863.00;;;;8331464;28;20236;-65
2022/07/11 15:59:15;;;;;;;0.60;0.60;;;;;28.10;96870.00;;;;8329630;28;20319;-64
2022/07/11 16:03:18;;;;;;;0.73;0.73;;;;;27.70;96871.00;;;;8337147;28;20275;-64
2022/07/11 16:07:21;;;;;;;0.60;0.60;;;;;27.30;96871.00;;;;8339947;28;20258;-63
2022/07/11 16:11:26;;;;;;;0.60;0.60;;;;;26.70;96868.00;;;;8332984;28;20320;-64
2022/07/11 16:15:30;;;;;;;5.40;0.80;;;;;26.00;96875.00;;;;8329329;28;20233;-65
2022/07/11 16:19:34;;;;;;;0.70;0.70;;;;;25.80;96877.00;;;;8332161;28;20233;-64
2022/07/11 16:23:37;;;;;;;0.65;0.65;;;;;25.40;96878.00;;;;8333594;28;20221;-64
2022/07/11 16:27:42;;;;;;;0.85;0.80;;;;;25.30;96882.00;;;;8333629;28;20232;-64
2022/07/11 16:31:45;;;;;;;0.90;0.90;;;;;24.90;96872.00;;;;8334404;28;21977;-64
2022/07/11 16:35:49;;;;;;;0.60;0.60;;;;;25.00;96874.00;;;;8329482;28;20301;-64
2022/07/11 16:44:14;;;;;;;0.77;0.77;;;;;24.60;96878.00;;;;8330839;28;20304;-64
2022/07/11 16:48:18;;;;;;;1.30;0.73;;;;;24.20;96874.00;;;;8328678;28;20388;-64
2022/07/11 16:52:22;;;;;;;0.63;0.63;;;;;23.90;96876.00;;;;8328235;28;20689;-65
2022/07/11 16:56:25;;;;;;;0.60;0.60;;;;;23.80;96879.00;;;;8322966;28;20229;-63
2022/07/11 17:00:30;;;;;;;0.60;0.60;;;;;23.90;96877.00;;;;8330197;28;20231;-64
2022/07/11 17:04:33;;;;;;;0.77;0.77;;;;;23.80;96878.00;;;;8333789;28;20311;-65
2022/07/11 17:08:46;;;;;;;1.02;0.68;;;;;23.80;96878.00;;;;8318736;28;20232;-64
2022/07/11 17:12:49;;;;;;;0.50;0.50;;;;;23.90;96873.00;;;;8332558;28;20220;-65
2022/07/11 17:16:54;;;;;;;0.63;0.63;;;;;23.90;96876.00;;;;8330493;28;20217;-65
2022/07/11 17:20:58;;;;;;;0.65;0.65;;;;;23.70;96871.00;;;;8336162;28;20767;-66
2022/07/11 17:25:02;;;;;;;0.60;0.60;;;;;23.70;96873.00;;;;8334602;28;20233;-66
2022/07/11 17:29:05;;;;;;;0.70;0.70;;;;;23.70;96876.00;;;;8332380;28;20228;-65
2022/07/11 17:33:10;;;;;;;0.68;0.68;;;;;23.50;96870.00;;;;8330640;28;20610;-66
2022/07/11 17:37:14;;;;;;;0.60;0.60;;;;;23.60;96882.00;;;;8333456;28;20296;-67
2022/07/11 17:41:17;;;;;;;0.80;0.80;;;;;23.70;96875.00;;;;8335972;28;20311;-67
2022/07/11 17:45:20;;;;;;;0.73;0.73;;;;;23.70;96881.00;;;;8341043;28;20307;-66
2022/07/11 17:49:25;;;;;;;0.70;0.70;;;;;23.90;96885.00;;;;8333522;28;20246;-65
2022/07/11 17:53:28;;;;;;;0.80;0.80;;;;;24.00;96879.00;;;;8335234;28;20242;-67
2022/07/11 17:57:32;;;;;;;0.70;0.70;;;;;24.10;96892.00;;;;8337212;28;20304;-66
2022/07/11 18:01:35;;;;;;;0.80;0.80;;;;;24.20;96894.00;;;;8331058;28;20879;-67
2022/07/11 18:05:40;;;;;;;0.80;0.80;;;;;24.10;96895.00;;;;8329539;28;20232;-66
2022/07/11 18:09:43;;;;;;;0.68;0.68;;;;;23.80;96892.00;;;;8328957;28;20245;-65
2022/07/11 18:13:54;;;;;;;0.77;0.77;;;;;23.50;96894.00;;;;8317955;28;20228;-67
2022/07/11 18:17:59;;;;;;;0.70;0.70;;;;;23.30;96885.00;;;;8330434;28;20287;-67
2022/07/11 18:22:04;;;;;;;0.70;0.70;;;;;23.00;96892.00;;;;8331717;28;20224;-67
2022/07/11 18:26:08;;;;;;;2.38;0.70;;;;;22.70;96893.00;;;;8328646;28;20236;-67
2022/07/11 18:30:17;;;;;;;0.70;0.70;;;;;22.40;96894.00;;;;8328174;28;20302;-67
2022/07/11 18:34:21;;;;;;;2.05;0.70;;;;;22.10;96906.00;;;;8325209;28;20239;-65
2022/07/11 18:38:26;;;;;;;0.85;0.85;;;;;21.80;96905.00;;;;8326017;28;20234;-65
2022/07/11 18:42:29;;;;;;;0.95;0.65;;;;;21.50;96910.00;;;;8322362;28;20216;-65
2022/07/11 18:46:33;;;;;;;3.50;0.80;;;;;21.30;96907.00;;;;8317925;28;20221;-66
2022/07/11 18:50:37;;;;;;;0.90;0.90;;;;;21.10;96915.00;;;;8329843;28;20315;-65
2022/07/11 18:54:43;;;;;;;0.70;0.70;;;;;20.90;96910.00;;;;8328172;28;20598;-65
2022/07/11 18:58:47;;;;;;;0.70;0.70;;;;;20.60;96906.00;;;;8324626;28;20233;-65
2022/07/11 19:02:50;;;;;;;0.85;0.85;;;;;20.50;96909.00;;;;8332341;28;20228;-65
2022/07/11 19:06:54;;;;;;;0.90;0.90;;;;;20.30;96913.00;;;;8321457;28;20748;-66
2022/07/11 19:10:58;;;;;;;0.80;0.80;;;;;20.20;96917.00;;;;8313507;28;20231;-66
2022/07/11 19:15:01;;;;;;;0.90;0.90;;;;;20.00;96919.00;;;;8327200;28;20221;-65
2022/07/11 19:19:05;;;;;;;1.00;1.00;;;;;19.90;96925.00;;;;8314922;28;20217;-64
2022/07/11 19:23:08;;;;;;;0.80;0.80;;;;;19.70;96932.00;;;;8306275;28;21533;-65
2022/07/11 19:27:13;;;;;;;0.93;0.93;;;;;19.50;96934.00;;;;8334329;28;20312;-66
2022/07/11 19:31:16;;;;;;;0.90;0.90;;;;;19.30;96937.00;;;;8334713;28;20664;-65
2022/07/11 19:35:20;;;;;;;1.08;0.95;;;;;19.20;96939.00;;;;8339133;28;20339;-65
2022/07/11 19:39:23;;;;;;;1.02;0.85;;;;;19.10;96943.00;;;;8340116;28;20234;-65
2022/07/11 19:43:28;;;;;;;1.35;1.08;;;;;18.90;96941.00;;;;8337275;28;20216;-65
2022/07/11 19:47:32;;;;;;;1.45;1.00;;;;;18.80;96952.00;;;;8336169;28;20234;-65
2022/07/11 19:51:35;;;;;;;0.98;0.98;;;;;18.70;96957.00;;;;8330900;28;20621;-65
2022/07/11 20:00:00;;;;;;;1.00;1.00;;;;;18.40;96955.00;;;;8338181;28;20221;-65
2022/07/11 20:04:05;;;;;;;1.30;1.30;;;;;18.30;96959.00;;;;8332095;28;20228;-64
2022/07/11 20:08:08;;;;;;;1.00;1.00;;;;;18.10;96964.00;;;;8332660;28;20319;-66
2022/07/11 20:12:11;;;;;;;1.23;1.13;;;;;17.90;96962.00;;;;8328882;28;20746;-64
2022/07/11 20:16:16;;;;;;;1.00;1.00;;;;;17.70;96961.00;;;;8327005;28;20999;-64
2022/07/11 20:20:19;;;;;;;1.30;1.30;;;;;17.50;96957.00;;;;8330048;28;20307;-65
2022/07/11 20:24:22;;;;;;;1.38;1.38;;;;;17.40;96955.00;;;;8333345;28;20228;-65
2022/07/11 20:28:25;;;;;;;1.23;1.23;;;;;17.20;96969.00;;;;8327582;28;20704;-66
2022/07/11 20:32:30;;;;;;;1.40;1.30;;;;;17.10;96974.00;;;;8337032;28;20240;-65
2022/07/11 20:36:34;;;;;;;1.77;1.40;;;;;16.90;96964.00;;;;8326995;28;20216;-66
2022/07/11 20:40:37;;;;;;;1.20;1.10;;;;;16.90;96973.00;;;;8332353;28;20244;-64
2022/07/11 20:44:40;;;;;;;1.13;1.13;;;;;16.90;96973.00;;;;8346339;28;20324;-66
2022/07/11 20:48:45;;;;;;;1.40;1.40;;;;;16.80;96976.00;;;;8335334;28;20229;-65
2022/07/11 20:52:48;;;;;;;2.67;1.38;;;;;16.90;96983.00;;;;8336809;28;20257;-65